Time;durP1;ratioP1;P1;durP2;ratioP2;P2;SDS_P1;SDS_P2;PMS_P1;PMS_P2;Temp;Humidity;BMP_temperature;BMP_pressure;BME280_temperature;BME280_humidity;BME280_pressure;Samples;Min_cycle;Max_cycle;Signal;HPM_P1;HPM_P2
2021/05/25 07:37:44;;;;;;;6.35;0.82;;;;;;;18.18;47.90;98079.96;1847704;76;22630;-69
2021/05/25 07:40:16;;;;;;;8.13;0.90;;;;;;;18.03;48.02;98096.87;1817295;78;21518;-64
2021/05/25 07:42:44;;;;;;;6.97;1.20;;;;;;;17.92;48.06;98081.61;1818001;79;21009;-70
2021/05/25 07:45:13;;;;;;;13.45;1.30;;;;;;;17.86;48.96;98087.00;1817947;78;21404;-69
2021/05/25 07:47:40;;;;;;;20.10;1.57;;;;;;;17.84;48.59;98089.81;1817971;78;20933;-70
2021/05/25 07:50:14;;;;;;;16.37;1.22;;;;;;;17.80;49.12;98076.16;1819059;79;20965;-67
2021/05/25 07:52:51;;;;;;;8.65;1.40;;;;;;;17.75;47.75;98074.45;1818408;79;21475;-67
2021/05/25 07:55:21;;;;;;;8.03;1.60;;;;;;;17.69;47.75;98074.42;1818077;78;21039;-69
2021/05/25 07:57:49;;;;;;;7.20;1.10;;;;;;;17.68;50.17;98086.40;1817833;79;20961;-69
2021/05/25 08:00:18;;;;;;;6.53;0.80;;;;;;;17.59;53.98;98097.85;1817993;79;21459;-68
2021/05/25 08:02:45;;;;;;;5.87;0.85;;;;;;;17.40;53.71;98093.48;1817911;79;20894;-68
2021/05/25 08:05:14;;;;;;;5.75;1.00;;;;;;;17.28;54.17;98098.03;1817860;79;21483;-67
2021/05/25 08:07:41;;;;;;;6.22;1.10;;;;;;;17.24;55.09;98135.78;1815577;79;21039;-69
2021/05/25 08:10:10;;;;;;;4.65;0.90;;;;;;;17.16;53.52;98129.89;1798873;79;21198;-65
2021/05/25 08:12:38;;;;;;;1.95;0.70;;;;;;;17.11;53.87;98176.08;1816696;79;20961;-66
2021/05/25 08:15:08;;;;;;;4.05;0.70;;;;;;;17.04;53.97;98175.81;1816743;79;20985;-69
2021/05/25 08:20:21;;;;;;;8.25;0.90;;;;;;;16.99;53.87;98180.84;1806142;79;21083;-66
2021/05/25 08:22:50;;;;;;;4.50;0.85;;;;;;;17.03;54.13;98179.62;1784109;80;21005;-65
2021/05/25 08:25:19;;;;;;;2.37;0.70;;;;;;;17.06;52.95;98187.89;1791815;79;20993;-70
2021/05/25 08:27:47;;;;;;;2.50;0.70;;;;;;;17.14;53.26;98212.52;1807184;79;20953;-68
2021/05/25 08:30:20;;;;;;;2.55;0.95;;;;;;;17.19;53.30;98229.38;1817852;79;20997;-69
2021/05/25 08:32:47;;;;;;;4.25;0.90;;;;;;;17.23;53.41;98238.42;1818166;79;21180;-66
2021/05/25 08:35:14;;;;;;;2.27;0.93;;;;;;;17.27;53.47;98260.20;1807133;79;20894;-67
2021/05/25 08:37:41;;;;;;;3.20;0.82;;;;;;;17.27;53.08;98261.00;1776462;80;20894;-69
2021/05/25 08:40:29;;;;;;;2.10;1.10;;;;;;;17.30;53.22;98276.60;1804824;77;20981;-66
2021/05/25 08:42:56;;;;;;;5.75;1.30;;;;;;;17.32;53.13;98277.06;1783380;79;21065;-67
2021/05/25 08:45:25;;;;;;;2.52;1.40;;;;;;;17.34;52.78;98277.53;1772329;81;21599;-66
2021/05/25 08:47:55;;;;;;;1.62;1.02;;;;;;;17.36;53.00;98277.98;1772131;81;21356;-67
2021/05/25 08:50:26;;;;;;;6.72;1.07;;;;;;;17.36;52.47;98252.27;1771968;81;20906;-71
2021/05/25 08:52:54;;;;;;;2.85;1.10;;;;;;;17.38;53.83;98239.78;1771992;81;20933;-68
2021/05/25 08:55:22;;;;;;;5.90;1.07;;;;;;;17.38;55.25;98225.66;1772153;81;21346;-71
2021/05/25 08:57:49;;;;;;;3.47;0.62;;;;;;;17.34;56.13;98215.26;1791777;79;21141;-68
2021/05/25 09:00:18;;;;;;;3.60;1.12;;;;;;;17.38;57.05;98204.58;1803613;79;20942;-69
2021/05/25 09:02:45;;;;;;;2.72;1.00;;;;;;;17.46;58.19;98197.74;1799255;79;21420;-68
2021/05/25 09:05:16;;;;;;;5.47;1.10;;;;;;;17.60;58.08;98183.41;1793571;79;21393;-67
2021/05/25 09:07:51;;;;;;;9.13;1.35;;;;;;;17.81;57.94;98166.33;1803629;79;20855;-66
2021/05/25 09:10:23;;;;;;;3.98;0.90;;;;;;;18.02;57.54;98163.82;1800938;79;21139;-66
2021/05/25 09:12:53;;;;;;;7.22;1.10;;;;;;;18.31;55.98;98162.33;1771456;79;21429;-66
2021/05/25 09:15:44;;;;;;;6.62;1.00;;;;;;;18.68;55.07;98157.75;1771933;80;20887;-66
2021/05/25 09:18:20;;;;;;;6.30;0.90;;;;;;;19.10;53.52;98159.09;1771825;80;21488;-68
2021/05/25 09:20:54;;;;;;;5.40;1.00;;;;;;;19.51;50.82;98142.30;1796993;79;20946;-66
2021/05/25 09:23:38;;;;;;;3.42;1.00;;;;;;;19.83;49.47;98134.49;1790034;78;21380;-67
2021/05/25 09:26:12;;;;;;;13.07;1.20;;;;;;;20.04;48.66;98135.07;1768169;77;21124;-69
2021/05/25 09:29:07;;;;;;;8.35;1.00;;;;;;;20.13;47.97;98126.73;1807897;78;21640;-68
2021/05/25 09:31:51;;;;;;;5.03;1.07;;;;;;;20.12;47.92;98118.34;1771601;80;20879;-67
2021/05/25 09:34:20;;;;;;;3.65;1.00;;;;;;;20.15;47.08;98108.94;1783091;79;21531;-67
2021/05/25 09:37:08;;;;;;;5.90;1.20;;;;;;;20.14;48.39;98104.63;1771566;80;21697;-68
2021/05/25 09:39:44;;;;;;;11.08;1.00;;;;;;;20.20;47.66;98096.45;1803238;78;20980;-68
2021/05/25 09:42:17;;;;;;;4.15;0.90;;;;;;;20.27;46.86;98080.34;1791411;78;21052;-67
2021/05/25 09:45:15;;;;;;;4.55;0.90;;;;;;;20.41;46.57;98086.13;1806608;78;21525;-75
2021/05/25 09:47:44;;;;;;;6.03;0.98;;;;;;;20.52;46.23;98077.41;1822155;78;21497;-69
2021/05/25 09:50:14;;;;;;;2.67;0.98;;;;;;;20.53;45.18;98066.76;1823771;78;21577;-69
2021/05/25 09:53:05;;;;;;;3.22;0.95;;;;;;;20.51;45.23;98061.69;1822585;78;20850;-70
2021/05/25 09:55:54;;;;;;;4.28;0.90;;;;;;;20.60;45.53;98054.11;1807047;78;20885;-71
2021/05/25 09:58:38;;;;;;;4.55;0.98;;;;;;;20.78;46.11;98049.06;1764843;80;20889;-72
2021/05/25 10:01:09;;;;;;;2.25;0.75;;;;;;;20.90;44.47;98040.78;1791249;80;21084;-69
2021/05/25 10:03:49;;;;;;;4.78;1.02;;;;;;;20.91;45.27;98039.64;1791140;80;21046;-69
2021/05/25 10:06:17;;;;;;;8.00;1.10;;;;;;;21.01;45.23;98032.25;1794162;78;21044;-69
2021/05/25 10:08:48;;;;;;;7.87;0.85;;;;;;;21.16;44.53;98034.17;1823409;78;20901;-69
2021/05/25 10:11:17;;;;;;;8.53;1.07;;;;;;;21.28;44.07;98023.14;1792358;78;20977;-71
2021/05/25 10:13:44;;;;;;;5.80;1.00;;;;;;;21.42;43.76;98023.98;1823577;78;20897;-69
2021/05/25 10:16:13;;;;;;;13.03;1.40;;;;;;;21.48;43.50;98007.58;1823637;78;21062;-70
2021/05/25 10:21:13;;;;;;;11.60;1.27;;;;;;;21.53;44.14;97997.72;1815901;78;21068;-70
2021/05/25 10:23:42;;;;;;;8.48;1.25;;;;;;;21.51;44.14;98011.72;1791315;80;21539;-69
2021/05/25 10:26:20;;;;;;;10.23;1.50;;;;;;;21.49;44.47;98001.75;1790586;80;21596;-63
2021/05/25 10:28:51;;;;;;;15.83;1.77;;;;;;;21.49;44.57;97985.41;1804878;78;20889;-67
2021/05/25 10:31:39;;;;;;;16.42;1.75;;;;;;;21.54;44.85;97976.94;1805650;78;20973;-68
2021/05/25 10:34:19;;;;;;;14.20;1.45;;;;;;;21.57;44.40;97980.31;1793928;78;21463;-65
2021/05/25 10:36:54;;;;;;;22.37;1.87;;;;;;;21.61;44.34;97966.16;1806430;78;21554;-74
2021/05/25 10:39:37;;;;;;;19.87;1.80;;;;;;;21.62;44.26;97970.45;1823977;78;20928;-67
2021/05/25 10:42:29;;;;;;;17.92;1.50;;;;;;;21.64;44.71;97966.81;1823957;78;21613;-64
2021/05/25 10:48:07;;;;;;;24.45;1.70;;;;;;;21.78;43.95;97958.87;1813369;79;20896;-65
2021/05/25 10:50:45;;;;;;;15.35;1.60;;;;;;;21.72;44.51;97954.86;1819988;78;20940;-67
2021/05/25 10:53:27;;;;;;;23.70;1.60;;;;;;;21.77;44.36;97967.40;1773346;80;20986;-71
2021/05/25 10:55:55;;;;;;;14.43;1.22;;;;;;;21.85;44.41;97959.59;1772599;79;21752;-72
2021/05/25 10:58:30;;;;;;;14.45;1.70;;;;;;;21.95;44.08;97955.47;1763504;80;20976;-68
2021/05/25 11:01:08;;;;;;;18.35;1.45;;;;;;;22.00;43.86;97957.89;1737706;81;20941;-68
2021/05/25 11:03:35;;;;;;;15.00;1.57;;;;;;;22.05;43.70;97954.27;1761337;80;20937;-68
2021/05/25 11:06:09;;;;;;;15.68;1.55;;;;;;;22.04;43.54;97968.28;1766362;80;21064;-67
2021/05/25 11:08:46;;;;;;;15.72;1.30;;;;;;;21.98;43.52;97945.17;1750313;81;20929;-68
2021/05/25 11:11:19;;;;;;;19.73;1.65;;;;;;;21.89;44.12;97965.09;1745978;82;21426;-70
2021/05/25 11:13:51;;;;;;;17.23;1.40;;;;;;;21.87;44.06;97957.86;1748929;81;21029;-70
2021/05/25 11:16:36;;;;;;;12.50;1.15;;;;;;;21.89;43.54;97953.62;1750125;82;20938;-68
2021/05/25 11:19:22;;;;;;;10.03;1.40;;;;;;;21.90;43.26;97963.39;1750039;82;21570;-68
2021/05/25 11:24:46;;;;;;;6.92;0.95;;;;;;;21.77;43.04;97949.68;1748880;81;20890;-69
2021/05/25 11:27:43;;;;;;;7.50;1.52;;;;;;;21.56;43.07;97947.95;1751376;81;20965;-69
2021/05/25 11:30:28;;;;;;;8.93;1.05;;;;;;;21.51;44.00;97944.95;1745090;81;21417;-73
2021/05/25 11:33:03;;;;;;;3.40;0.90;;;;;;;21.76;43.47;97943.44;1752269;81;21028;-69
2021/05/25 11:35:39;;;;;;;9.75;1.12;;;;;;;21.96;43.33;97933.85;1749726;82;21057;-68
2021/05/25 11:38:15;;;;;;;9.28;1.20;;;;;;;22.03;43.26;97932.03;1717307;82;20951;-69
2021/05/25 11:40:43;;;;;;;5.25;1.40;;;;;;;22.19;43.23;97931.87;1726947;82;21016;-69
2021/05/25 11:43:14;;;;;;;16.02;1.25;;;;;;;22.34;42.73;97921.38;1722522;82;21079;-71
2021/05/25 11:45:48;;;;;;;4.35;1.12;;;;;;;22.48;42.13;97914.76;1750154;81;21783;-69
2021/05/25 11:48:23;;;;;;;7.55;1.30;;;;;;;22.57;42.55;97922.09;1727850;81;21046;-69
2021/05/25 11:50:53;;;;;;;6.43;0.77;;;;;;;22.85;42.11;97920.31;1748158;82;20969;-65
2021/05/25 11:53:21;;;;;;;6.90;1.00;;;;;;;23.13;41.72;97931.58;1719872;82;20948;-66
2021/05/25 11:55:48;;;;;;;3.58;0.90;;;;;;;23.19;41.18;97907.45;1755780;81;21005;-69
2021/05/25 11:58:15;;;;;;;5.25;1.02;;;;;;;23.17;41.60;97909.77;1744757;82;21575;-67
2021/05/25 12:00:42;;;;;;;8.25;1.00;;;;;;;23.05;41.44;97908.88;1744744;82;21105;-71
2021/05/25 12:03:09;;;;;;;9.25;0.98;;;;;;;22.96;41.84;97902.90;1744829;82;20874;-67
2021/05/25 12:05:42;;;;;;;6.17;1.10;;;;;;;22.79;41.60;97893.94;1744919;82;21425;-69
2021/05/25 12:08:14;;;;;;;8.55;1.10;;;;;;;22.63;41.88;97899.39;1713680;82;21013;-68
2021/05/25 12:10:42;;;;;;;4.30;0.90;;;;;;;22.58;42.26;97915.48;1743280;82;21092;-71
2021/05/25 12:13:14;;;;;;;3.25;0.90;;;;;;;22.79;42.34;97911.69;1743403;82;21620;-69
2021/05/25 12:15:48;;;;;;;4.00;1.10;;;;;;;23.18;41.66;97915.42;1743344;81;21065;-69
2021/05/25 12:18:24;;;;;;;4.40;1.27;;;;;;;23.45;40.81;97915.55;1743515;82;21029;-72
2021/05/25 12:20:55;;;;;;;10.82;1.30;;;;;;;23.60;40.28;97906.34;1743897;81;21567;-69
2021/05/25 12:23:25;;;;;;;4.35;1.10;;;;;;;23.72;40.53;97906.02;1744709;82;21017;-68
2021/05/25 12:25:53;;;;;;;5.25;1.30;;;;;;;23.84;40.51;97897.53;1745051;82;21028;-70
2021/05/25 12:28:38;;;;;;;5.30;0.93;;;;;;;23.81;40.02;97894.97;1744823;81;21078;-69
2021/05/25 12:31:02;;;;;;;4.92;1.00;;;;;;;23.92;39.97;97899.17;1743988;82;20997;-70
2021/05/25 12:33:32;;;;;;;5.87;1.10;;;;;;;24.11;40.40;97879.01;1744522;81;21160;-69
2021/05/25 12:36:44;;;;;;;6.70;1.00;;;;;;;24.35;39.48;97857.85;1744471;81;21603;-66
2021/05/25 12:39:30;;;;;;;6.15;1.12;;;;;;;24.45;39.26;97856.52;1733140;82;21192;-68
2021/05/25 12:41:50;;;;;;;3.05;0.88;;;;;;;24.59;39.05;97867.35;1743056;82;21033;-70
2021/05/25 12:44:33;;;;;;;6.90;1.20;;;;;;;24.68;38.90;97861.72;1745949;81;20898;-72
2021/05/25 12:47:06;;;;;;;8.55;1.00;;;;;;;24.76;38.40;97868.80;1751935;82;21518;-67
2021/05/25 12:49:46;;;;;;;9.98;1.05;;;;;;;24.73;38.47;97863.30;1752442;82;21110;-69
2021/05/25 12:52:32;;;;;;;4.95;0.90;;;;;;;24.74;38.67;97848.42;1754486;81;20997;-73
2021/05/25 12:55:04;;;;;;;6.80;1.07;;;;;;;24.71;38.41;97858.77;1774771;79;21469;-70
2021/05/25 12:57:48;;;;;;;9.43;1.05;;;;;;;24.75;38.50;97845.89;1760451;81;21474;-72
2021/05/25 13:00:26;;;;;;;6.75;0.90;;;;;;;24.80;38.91;97856.51;1761140;81;21080;-72
2021/05/25 13:02:53;;;;;;;8.40;1.37;;;;;;;25.00;38.18;97863.20;1759676;81;20988;-70
2021/05/25 13:05:30;;;;;;;2.35;0.90;;;;;;;25.06;38.00;97837.02;1759756;81;21068;-66
2021/05/25 13:08:11;;;;;;;6.53;1.00;;;;;;;24.87;38.07;97851.05;1747647;82;20915;-75
2021/05/25 13:10:48;;;;;;;2.85;1.00;;;;;;;24.51;38.69;97852.84;1719241;83;21105;-70
2021/05/25 13:13:25;;;;;;;6.80;1.45;;;;;;;24.10;39.25;97846.75;1733205;81;21148;-68
2021/05/25 13:15:57;;;;;;;19.02;1.15;;;;;;;23.86;40.06;97850.68;1780284;80;21065;-70
2021/05/25 13:18:40;;;;;;;4.97;0.85;;;;;;;23.94;40.24;97861.86;1758013;80;21187;-65
2021/05/25 13:21:13;;;;;;;7.45;1.17;;;;;;;24.24;40.14;97861.09;1746114;81;21578;-67
2021/05/25 13:23:41;;;;;;;5.35;1.05;;;;;;;24.51;39.88;97854.79;1768065;80;20889;-74
2021/05/25 13:26:15;;;;;;;4.80;0.88;;;;;;;24.43;39.73;97853.38;1747228;81;21442;-68
2021/05/25 13:28:58;;;;;;;7.65;1.70;;;;;;;24.17;40.24;97850.90;1754442;80;21108;-72
2021/05/25 13:31:30;;;;;;;7.00;1.30;;;;;;;24.00;40.59;97843.33;1773011;81;21070;-71
2021/05/25 13:33:57;;;;;;;9.88;1.12;;;;;;;23.89;41.37;97836.22;1743495;80;21131;-70
2021/05/25 13:36:26;;;;;;;3.77;1.27;;;;;;;23.85;41.20;97845.00;1746458;80;21515;-69
2021/05/25 13:38:53;;;;;;;3.98;1.20;;;;;;;23.80;41.25;97853.77;1757126;80;20940;-72
2021/05/25 13:41:22;;;;;;;9.68;1.35;;;;;;;23.74;41.26;97842.20;1757262;81;21111;-70
2021/05/25 13:43:53;;;;;;;7.42;1.22;;;;;;;23.78;41.55;97840.27;1753961;80;21694;-68
2021/05/25 13:46:20;;;;;;;7.67;0.88;;;;;;;23.90;41.28;97838.59;1753386;80;20933;-69
2021/05/25 13:48:47;;;;;;;4.30;1.07;;;;;;;24.06;40.43;97839.66;1742715;82;21544;-67
2021/05/25 13:51:14;;;;;;;5.97;0.95;;;;;;;24.28;40.60;97835.31;1756147;80;21139;-67
2021/05/25 13:53:43;;;;;;;6.17;1.10;;;;;;;24.56;40.14;97822.94;1756519;81;21576;-73
2021/05/25 13:56:14;;;;;;;9.03;1.20;;;;;;;24.84;39.10;97838.13;1732095;81;21155;-69
2021/05/25 13:58:40;;;;;;;4.70;1.00;;;;;;;25.04;38.84;97825.05;1722691;83;21156;-69
2021/05/25 14:03:41;;;;;;;5.80;1.00;;;;;;;25.50;37.97;97821.03;1755768;81;21144;-70
2021/05/25 14:06:09;;;;;;;4.17;1.02;;;;;;;25.69;37.55;97824.74;1739600;81;21117;-68
2021/05/25 14:08:37;;;;;;;3.80;0.93;;;;;;;25.86;37.07;97822.38;1715693;82;20989;-70
2021/05/25 14:11:04;;;;;;;5.25;1.12;;;;;;;26.02;37.16;97820.77;1752739;81;21669;-70
2021/05/25 14:13:35;;;;;;;7.65;1.10;;;;;;;26.19;37.18;97821.94;1756762;81;20953;-69
2021/05/25 14:16:02;;;;;;;5.65;1.00;;;;;;;26.34;36.53;97827.56;1753130;81;21135;-68
2021/05/25 15:33:24;;;;;;;5.83;1.00;;;;;;;24.23;39.84;97750.88;1837117;76;22409;-66
2021/05/25 15:36:12;;;;;;;3.67;1.10;;;;;;;23.97;40.20;97755.22;1804869;77;21012;-67
2021/05/25 15:39:15;;;;;;;4.28;1.45;;;;;;;23.83;40.67;97758.64;1714234;82;21418;-65
2021/05/25 15:41:44;;;;;;;3.30;1.20;;;;;;;23.74;40.81;97757.44;1762383;81;20988;-66
2021/05/25 15:44:12;;;;;;;7.03;1.00;;;;;;;23.56;40.76;97761.98;1740034;82;21051;-67
2021/05/25 15:46:39;;;;;;;9.25;1.25;;;;;;;23.34;41.03;97757.52;1740851;82;20957;-69
2021/05/25 15:49:06;;;;;;;8.03;1.15;;;;;;;23.15;41.89;97768.86;1788167;79;20976;-70
2021/05/25 15:51:35;;;;;;;7.60;1.40;;;;;;;23.02;42.23;97753.94;1807097;79;23056;-69
2021/05/25 15:54:06;;;;;;;2.87;0.90;;;;;;;22.91;42.53;97755.80;1801203;79;21495;-70
2021/05/25 15:56:34;;;;;;;10.23;1.12;;;;;;;22.78;42.57;97754.48;1794304;79;20898;-69
2021/05/25 15:59:03;;;;;;;6.03;1.22;;;;;;;22.63;42.70;97747.33;1787307;79;21618;-66
2021/05/25 16:01:33;;;;;;;9.08;1.50;;;;;;;22.52;42.91;97748.34;1784287;80;21092;-69
2021/05/25 16:03:59;;;;;;;2.30;0.82;;;;;;;22.49;43.08;97738.36;1784307;80;21115;-68
2021/05/25 16:06:26;;;;;;;4.75;1.10;;;;;;;22.51;43.10;97738.58;1784242;80;20996;-67
2021/05/25 16:08:53;;;;;;;9.35;1.12;;;;;;;22.52;43.17;97738.80;1784446;80;21067;-69
2021/05/25 16:11:22;;;;;;;3.22;1.20;;;;;;;22.52;43.22;97735.46;1799070;79;21589;-68
2021/05/25 16:13:49;;;;;;;5.53;0.90;;;;;;;22.55;43.47;97731.20;1817073;79;21054;-70
2021/05/25 16:16:18;;;;;;;5.70;1.00;;;;;;;22.55;43.46;97725.74;1817923;79;21577;-69
2021/05/25 16:18:46;;;;;;;7.92;0.90;;;;;;;22.54;43.50;97727.68;1813177;77;21384;-68
2021/05/25 16:21:13;;;;;;;6.65;1.05;;;;;;;22.49;43.69;97722.59;1788669;80;20890;-68
2021/05/25 16:23:40;;;;;;;6.35;1.02;;;;;;;22.45;43.86;97727.20;1789082;80;20885;-74
2021/05/25 16:26:07;;;;;;;2.70;1.10;;;;;;;22.38;43.90;97724.39;1788836;80;21500;-69
2021/05/25 16:28:37;;;;;;;4.53;1.20;;;;;;;22.33;44.03;97724.72;1788661;80;21054;-70
2021/05/25 16:31:04;;;;;;;6.67;1.50;;;;;;;22.25;44.26;97723.09;1788484;80;20940;-65
2021/05/25 16:33:31;;;;;;;3.83;1.05;;;;;;;22.18;44.59;97735.28;1775902;79;20863;-67
2021/05/25 16:35:58;;;;;;;3.83;0.90;;;;;;;22.08;44.61;97734.57;1772350;81;20981;-68
2021/05/25 16:38:26;;;;;;;4.28;1.02;;;;;;;21.98;44.96;97735.21;1772652;81;20966;-69
2021/05/25 16:40:53;;;;;;;6.05;0.90;;;;;;;21.91;45.20;97746.03;1773386;81;21054;-71
2021/05/25 16:43:20;;;;;;;2.25;1.00;;;;;;;21.86;45.50;97740.92;1775980;79;20970;-68
